OBBI/BAH METAR and TAF weather

Enter ICAO airport designator
Station Type Date Time Source
OBBI METAR 2021/07/24 21:00 UTC NOAA

OBBI 242100Z 19007KT 140V210 7000 NSC 35/28 Q0996 TEMPO 5000 HZ


Station Type Date Time Source
OBBI Decoded METAR 2021/07/24 21:00 UTC NOAA

Bahrain International Airport , Bahrain (OBBI) 26-16N 050-39E 2M
Jul 24, 2021 - 05:00 PM EDT / 2021.07.24 2100 UTC
Wind: from the S (190 degrees) at 8 MPH (7 KT) (direction variable):0
Visibility: 4 mile(s):0
Temperature: 95 F (35 C)
Heat index: 119.7 F (48.7 C):1
Dew Point: 82 F (28 C)
Relative Humidity: 67%
Pressure (altimeter): 29.41 in. Hg (0996 hPa)
ob: OBBI 242100Z 19007KT 140V210 7000 NSC 35/28 Q0996 TEMPO 5000 HZ
cycle: 21

Station Type Date Time Source
OBBI TAF 2021/07/24 18:32 UTC NOAA

TAF OBBI 241700Z 2418/2600 03010KT CAVOK
BECMG 2500/2502 VRB05KT

Example: see airport list